TimeEDT,TemperatureF,Dew PointF,Humidity,Sea Level PressureIn,VisibilityMPH,Wind Direction,Wind SpeedMPH,Gust SpeedMPH,PrecipitationIn,Events,Conditions,WindDirDegrees,DateUTC
12:54 AM,50.0,36.0,59,30.40,10.0,Calm,Calm,-,N/A,,Overcast,0,2012-03-12 04:54:00
1:54 AM,50.0,37.0,61,30.40,10.0,Calm,Calm,-,N/A,,Overcast,0,2012-03-12 05:54:00
2:54 AM,50.0,37.9,63,30.38,10.0,SE,5.8,-,N/A,,Overcast,130,2012-03-12 06:54:00
3:54 AM,51.1,41.0,68,30.37,10.0,Calm,Calm,-,N/A,,Overcast,0,2012-03-12 07:54:00
4:14 AM,51.8,42.8,71,30.39,10.0,Calm,Calm,-,N/A,,Overcast,0,2012-03-12 08:14:00
4:54 AM,51.1,45.0,80,30.35,10.0,SSW,6.9,-,N/A,,Overcast,210,2012-03-12 08:54:00
5:54 AM,50.0,46.0,86,30.36,10.0,South,5.8,-,N/A,,Overcast,170,2012-03-12 09:54:00
6:54 AM,50.0,46.4,87,30.39,10.0,SSE,6.9,-,N/A,,Overcast,150,2012-03-12 10:54:00
7:54 AM,50.0,46.9,89,30.37,10.0,SSE,6.9,-,N/A,,Overcast,150,2012-03-12 11:54:00
8:51 AM,51.8,48.2,88,30.39,10.0,SSE,5.8,-,N/A,,Overcast,150,2012-03-12 12:51:00
8:54 AM,51.1,48.0,89,30.37,10.0,SSE,5.8,-,N/A,,Overcast,150,2012-03-12 12:54:00
9:54 AM,53.1,48.9,86,30.37,10.0,South,6.9,-,N/A,,Overcast,180,2012-03-12 13:54:00
10:26 AM,53.6,48.2,82,30.39,10.0,South,6.9,-,N/A,,Overcast,190,2012-03-12 14:26:00
10:54 AM,55.0,48.9,80,30.38,10.0,South,6.9,-,N/A,,Overcast,190,2012-03-12 14:54:00
11:04 AM,55.4,48.2,77,30.40,10.0,South,8.1,-,N/A,,Overcast,180,2012-03-12 15:04:00
11:54 AM,57.9,48.0,70,30.36,10.0,SSW,12.7,18.4,N/A,,Overcast,200,2012-03-12 15:54:00
12:35 PM,60.8,48.2,63,30.38,10.0,South,15.0,23.0,N/A,,Mostly Cloudy,190,2012-03-12 16:35:00
12:54 PM,62.1,48.9,62,30.34,10.0,SSW,15.0,23.0,N/A,,Mostly Cloudy,200,2012-03-12 16:54:00
1:54 PM,61.0,48.0,62,30.32,10.0,South,12.7,24.2,N/A,,Overcast,190,2012-03-12 17:54:00
2:06 PM,60.8,48.2,63,30.35,-9999.0,North,-9999.0,-,N/A,,Unknown,0,2012-03-12 18:06:00
2:54 PM,60.1,48.0,64,30.30,10.0,SSW,9.2,-,N/A,,Overcast,200,2012-03-12 18:54:00
3:12 PM,60.8,48.2,63,30.33,10.0,South,15.0,-,N/A,,Overcast,190,2012-03-12 19:12:00
3:47 PM,59.0,48.2,67,30.33,10.0,South,13.8,24.2,N/A,,Overcast,190,2012-03-12 19:47:00
3:54 PM,57.9,48.9,72,30.30,10.0,SSW,11.5,-,N/A,,Overcast,210,2012-03-12 19:54:00
4:16 PM,57.2,50.0,77,30.32,10.0,SSW,10.4,-,N/A,,Overcast,210,2012-03-12 20:16:00
4:54 PM,57.9,50.0,75,30.28,10.0,SSW,10.4,-,N/A,,Overcast,200,2012-03-12 20:54:00
5:54 PM,55.9,50.0,80,30.29,10.0,South,9.2,-,N/A,,Overcast,190,2012-03-12 21:54:00
6:30 PM,53.6,51.8,94,30.31,4.0,South,6.9,-,0.00,Rain,Light Rain,170,2012-03-12 22:30:00
6:41 PM,53.6,51.8,94,30.31,4.0,SSE,5.8,-,0.00,Rain,Light Rain,160,2012-03-12 22:41:00
6:54 PM,54.0,52.0,93,30.29,4.0,SSE,3.5,-,0.01,Rain,Light Rain,160,2012-03-12 22:54:00
7:54 PM,53.6,51.8,94,30.29,9.0,South,8.1,-,N/A,Rain,Light Rain,170,2012-03-12 23:54:00
8:11 PM,53.6,51.8,94,30.30,10.0,SSE,5.8,-,0.00,Rain,Light Rain,150,2012-03-13 00:11:00
8:24 PM,53.6,51.8,94,30.29,10.0,SSE,6.9,-,0.00,Rain,Light Rain,160,2012-03-13 00:24:00
8:47 PM,53.6,53.6,100,30.29,10.0,SSE,5.8,-,0.00,,Overcast,160,2012-03-13 00:47:00
8:54 PM,54.0,53.1,97,30.27,10.0,South,5.8,-,0.00,,Overcast,180,2012-03-13 00:54:00
9:25 PM,53.6,51.8,94,30.29,10.0,SSE,4.6,-,N/A,,Overcast,160,2012-03-13 01:25:00
9:54 PM,54.0,52.0,93,30.27,10.0,SSE,3.5,-,0.00,Rain,Light Rain,150,2012-03-13 01:54:00
10:45 PM,53.6,51.8,94,30.29,10.0,SSE,6.9,-,N/A,,Overcast,150,2012-03-13 02:45:00
10:54 PM,54.0,52.0,93,30.26,10.0,SSE,6.9,-,N/A,,Overcast,150,2012-03-13 02:54:00
11:23 PM,53.6,51.8,94,30.29,10.0,SSE,5.8,-,N/A,,Overcast,150,2012-03-13 03:23:00
11:54 PM,54.0,52.0,93,30.26,10.0,SSE,4.6,-,N/A,,Overcast,160,2012-03-13 03:54:00